sensor_id;sensor_type;location;lat;lon;timestamp;P1;durP1;ratioP1;P2;durP2;ratioP2
40449;SDS011;41787;53.570;10.032;2022-12-11T00:01:46;8.57;;;5.22;;
40449;SDS011;41787;53.570;10.032;2022-12-11T00:04:12;9.90;;;6.35;;
40449;SDS011;41787;53.570;10.032;2022-12-11T00:06:38;6.50;;;4.05;;
40449;SDS011;41787;53.570;10.032;2022-12-11T00:09:04;13.50;;;7.10;;
40449;SDS011;41787;53.570;10.032;2022-12-11T00:11:30;14.65;;;7.32;;
40449;SDS011;41787;53.570;10.032;2022-12-11T00:13:56;11.23;;;6.43;;
40449;SDS011;41787;53.570;10.032;2022-12-11T00:16:22;14.38;;;8.48;;
40449;SDS011;41787;53.570;10.032;2022-12-11T00:18:48;10.32;;;6.10;;
40449;SDS011;41787;53.570;10.032;2022-12-11T00:21:14;12.48;;;6.70;;
40449;SDS011;41787;53.570;10.032;2022-12-11T00:23:40;13.15;;;7.13;;
40449;SDS011;41787;53.570;10.032;2022-12-11T00:26:08;14.07;;;6.95;;
40449;SDS011;41787;53.570;10.032;2022-12-11T00:28:34;13.23;;;7.57;;
40449;SDS011;41787;53.570;10.032;2022-12-11T00:31:06;11.88;;;6.68;;
40449;SDS011;41787;53.570;10.032;2022-12-11T00:33:33;12.98;;;6.82;;
40449;SDS011;41787;53.570;10.032;2022-12-11T00:35:59;11.30;;;6.78;;
40449;SDS011;41787;53.570;10.032;2022-12-11T00:38:25;13.45;;;7.97;;
40449;SDS011;41787;53.570;10.032;2022-12-11T00:40:51;10.15;;;5.05;;
40449;SDS011;41787;53.570;10.032;2022-12-11T00:43:17;12.45;;;7.28;;
40449;SDS011;41787;53.570;10.032;2022-12-11T00:45:44;13.60;;;7.93;;
40449;SDS011;41787;53.570;10.032;2022-12-11T00:48:11;11.93;;;7.00;;
40449;SDS011;41787;53.570;10.032;2022-12-11T00:50:38;11.75;;;6.72;;
40449;SDS011;41787;53.570;10.032;2022-12-11T00:53:04;11.30;;;7.32;;
40449;SDS011;41787;53.570;10.032;2022-12-11T00:55:31;12.68;;;8.25;;
40449;SDS011;41787;53.570;10.032;2022-12-11T00:58:00;17.45;;;8.60;;
40449;SDS011;41787;53.570;10.032;2022-12-11T01:00:26;8.27;;;4.85;;
40449;SDS011;41787;53.570;10.032;2022-12-11T01:02:52;12.60;;;7.82;;
40449;SDS011;41787;53.570;10.032;2022-12-11T01:05:18;14.43;;;7.63;;
40449;SDS011;41787;53.570;10.032;2022-12-11T01:07:44;15.45;;;8.45;;
40449;SDS011;41787;53.570;10.032;2022-12-11T01:10:11;15.23;;;8.70;;
40449;SDS011;41787;53.570;10.032;2022-12-11T01:12:50;15.77;;;8.75;;
40449;SDS011;41787;53.570;10.032;2022-12-11T01:15:17;14.45;;;8.50;;
40449;SDS011;41787;53.570;10.032;2022-12-11T01:17:43;14.35;;;7.80;;
40449;SDS011;41787;53.570;10.032;2022-12-11T01:20:09;11.90;;;7.43;;
40449;SDS011;41787;53.570;10.032;2022-12-11T01:22:35;18.45;;;9.88;;
40449;SDS011;41787;53.570;10.032;2022-12-11T01:25:01;16.60;;;9.65;;
40449;SDS011;41787;53.570;10.032;2022-12-11T01:27:27;15.10;;;8.77;;
40449;SDS011;41787;53.570;10.032;2022-12-11T01:29:53;18.90;;;10.25;;
40449;SDS011;41787;53.570;10.032;2022-12-11T01:32:21;15.52;;;8.65;;
40449;SDS011;41787;53.570;10.032;2022-12-11T01:34:47;16.98;;;9.73;;
40449;SDS011;41787;53.570;10.032;2022-12-11T01:37:13;15.38;;;9.80;;
40449;SDS011;41787;53.570;10.032;2022-12-11T01:39:39;15.15;;;8.70;;
40449;SDS011;41787;53.570;10.032;2022-12-11T01:42:05;18.27;;;9.93;;
40449;SDS011;41787;53.570;10.032;2022-12-11T01:47:01;16.35;;;9.68;;
40449;SDS011;41787;53.570;10.032;2022-12-11T01:49:27;18.95;;;11.20;;
40449;SDS011;41787;53.570;10.032;2022-12-11T01:51:58;17.15;;;9.68;;
40449;SDS011;41787;53.570;10.032;2022-12-11T01:54:24;18.80;;;10.32;;
40449;SDS011;41787;53.570;10.032;2022-12-11T01:56:52;16.00;;;10.57;;
40449;SDS011;41787;53.570;10.032;2022-12-11T01:59:22;16.30;;;10.43;;
40449;SDS011;41787;53.570;10.032;2022-12-11T02:02:22;18.95;;;10.70;;
40449;SDS011;41787;53.570;10.032;2022-12-11T02:04:41;16.40;;;10.30;;
40449;SDS011;41787;53.570;10.032;2022-12-11T02:07:09;19.02;;;10.30;;
40449;SDS011;41787;53.570;10.032;2022-12-11T02:09:35;18.17;;;10.73;;
40449;SDS011;41787;53.570;10.032;2022-12-11T02:12:05;17.33;;;10.73;;
40449;SDS011;41787;53.570;10.032;2022-12-11T02:17:21;17.95;;;10.73;;
40449;SDS011;41787;53.570;10.032;2022-12-11T02:27:49;17.77;;;10.88;;
40449;SDS011;41787;53.570;10.032;2022-12-11T02:30:20;15.95;;;9.90;;
40449;SDS011;41787;53.570;10.032;2022-12-11T02:32:56;16.63;;;10.02;;
40449;SDS011;41787;53.570;10.032;2022-12-11T02:35:33;14.93;;;9.80;;
40449;SDS011;41787;53.570;10.032;2022-12-11T02:38:24;17.58;;;10.00;;
40449;SDS011;41787;53.570;10.032;2022-12-11T02:40:47;14.73;;;9.65;;
40449;SDS011;41787;53.570;10.032;2022-12-11T02:43:14;17.48;;;9.38;;
40449;SDS011;41787;53.570;10.032;2022-12-11T02:45:41;17.00;;;10.63;;
40449;SDS011;41787;53.570;10.032;2022-12-11T02:48:08;19.17;;;10.43;;
40449;SDS011;41787;53.570;10.032;2022-12-11T02:50:36;17.67;;;10.32;;
40449;SDS011;41787;53.570;10.032;2022-12-11T02:53:04;20.60;;;11.52;;
40449;SDS011;41787;53.570;10.032;2022-12-11T02:55:31;17.90;;;10.43;;
40449;SDS011;41787;53.570;10.032;2022-12-11T02:58:01;12.93;;;7.45;;
40449;SDS011;41787;53.570;10.032;2022-12-11T03:00:29;18.83;;;10.02;;
40449;SDS011;41787;53.570;10.032;2022-12-11T03:02:55;20.10;;;10.90;;
40449;SDS011;41787;53.570;10.032;2022-12-11T03:05:21;16.70;;;9.45;;
40449;SDS011;41787;53.570;10.032;2022-12-11T03:07:47;15.27;;;7.72;;
40449;SDS011;41787;53.570;10.032;2022-12-11T03:10:14;18.88;;;10.77;;
40449;SDS011;41787;53.570;10.032;2022-12-11T03:12:43;19.85;;;10.77;;
40449;SDS011;41787;53.570;10.032;2022-12-11T03:15:12;18.25;;;10.55;;
40449;SDS011;41787;53.570;10.032;2022-12-11T03:20:26;16.38;;;10.50;;
40449;SDS011;41787;53.570;10.032;2022-12-11T03:28:22;18.20;;;9.32;;
40449;SDS011;41787;53.570;10.032;2022-12-11T03:30:51;17.85;;;10.52;;
40449;SDS011;41787;53.570;10.032;2022-12-11T03:33:25;18.05;;;10.45;;
40449;SDS011;41787;53.570;10.032;2022-12-11T03:35:53;20.85;;;11.07;;
40449;SDS011;41787;53.570;10.032;2022-12-11T03:38:27;18.07;;;10.73;;
40449;SDS011;41787;53.570;10.032;2022-12-11T03:40:57;17.48;;;10.25;;
40449;SDS011;41787;53.570;10.032;2022-12-11T03:43:25;18.70;;;10.52;;
40449;SDS011;41787;53.570;10.032;2022-12-11T03:45:53;17.00;;;10.10;;
40449;SDS011;41787;53.570;10.032;2022-12-11T03:48:19;15.75;;;9.48;;
40449;SDS011;41787;53.570;10.032;2022-12-11T03:50:45;20.92;;;11.20;;
40449;SDS011;41787;53.570;10.032;2022-12-11T03:53:12;17.77;;;10.93;;
40449;SDS011;41787;53.570;10.032;2022-12-11T03:55:38;18.38;;;10.90;;
40449;SDS011;41787;53.570;10.032;2022-12-11T03:58:05;16.63;;;10.38;;
40449;SDS011;41787;53.570;10.032;2022-12-11T04:00:31;18.90;;;11.10;;
40449;SDS011;41787;53.570;10.032;2022-12-11T04:02:57;17.77;;;9.15;;
40449;SDS011;41787;53.570;10.032;2022-12-11T04:05:40;17.88;;;9.98;;
40449;SDS011;41787;53.570;10.032;2022-12-11T04:08:06;20.63;;;10.43;;
40449;SDS011;41787;53.570;10.032;2022-12-11T04:10:32;19.83;;;10.85;;
40449;SDS011;41787;53.570;10.032;2022-12-11T04:12:58;17.90;;;10.70;;
40449;SDS011;41787;53.570;10.032;2022-12-11T04:15:24;17.52;;;10.20;;
40449;SDS011;41787;53.570;10.032;2022-12-11T04:17:50;18.05;;;9.90;;
40449;SDS011;41787;53.570;10.032;2022-12-11T04:20:48;13.98;;;8.55;;
40449;SDS011;41787;53.570;10.032;2022-12-11T04:23:36;16.33;;;9.63;;
40449;SDS011;41787;53.570;10.032;2022-12-11T04:26:20;18.00;;;10.48;;
40449;SDS011;41787;53.570;10.032;2022-12-11T04:28:46;19.13;;;10.93;;
40449;SDS011;41787;53.570;10.032;2022-12-11T04:31:14;18.10;;;10.85;;
40449;SDS011;41787;53.570;10.032;2022-12-11T04:33:40;18.30;;;11.02;;
40449;SDS011;41787;53.570;10.032;2022-12-11T04:36:07;19.17;;;10.77;;
40449;SDS011;41787;53.570;10.032;2022-12-11T04:38:33;17.02;;;10.15;;
40449;SDS011;41787;53.570;10.032;2022-12-11T04:41:00;19.67;;;10.40;;
40449;SDS011;41787;53.570;10.032;2022-12-11T04:43:26;18.73;;;10.57;;
40449;SDS011;41787;53.570;10.032;2022-12-11T04:46:08;17.20;;;10.48;;
40449;SDS011;41787;53.570;10.032;2022-12-11T04:48:35;18.92;;;11.13;;
40449;SDS011;41787;53.570;10.032;2022-12-11T04:51:01;20.00;;;11.13;;
40449;SDS011;41787;53.570;10.032;2022-12-11T04:53:27;18.52;;;10.05;;
40449;SDS011;41787;53.570;10.032;2022-12-11T04:55:53;16.83;;;10.88;;
40449;SDS011;41787;53.570;10.032;2022-12-11T04:58:19;20.48;;;11.45;;
40449;SDS011;41787;53.570;10.032;2022-12-11T05:00:46;18.30;;;10.00;;
40449;SDS011;41787;53.570;10.032;2022-12-11T05:03:12;18.35;;;11.43;;
40449;SDS011;41787;53.570;10.032;2022-12-11T05:05:38;21.85;;;11.48;;
40449;SDS011;41787;53.570;10.032;2022-12-11T05:08:04;18.05;;;11.20;;
40449;SDS011;41787;53.570;10.032;2022-12-11T05:10:30;18.77;;;10.75;;
40449;SDS011;41787;53.570;10.032;2022-12-11T05:12:56;22.15;;;12.05;;
40449;SDS011;41787;53.570;10.032;2022-12-11T05:15:22;22.35;;;11.43;;
40449;SDS011;41787;53.570;10.032;2022-12-11T05:17:48;18.10;;;11.02;;
40449;SDS011;41787;53.570;10.032;2022-12-11T05:20:14;18.08;;;10.48;;
40449;SDS011;41787;53.570;10.032;2022-12-11T05:22:40;17.90;;;10.77;;
40449;SDS011;41787;53.570;10.032;2022-12-11T05:25:06;16.15;;;10.63;;
40449;SDS011;41787;53.570;10.032;2022-12-11T05:27:32;17.92;;;10.93;;
40449;SDS011;41787;53.570;10.032;2022-12-11T05:29:58;18.70;;;11.35;;
40449;SDS011;41787;53.570;10.032;2022-12-11T05:32:24;19.70;;;11.32;;
40449;SDS011;41787;53.570;10.032;2022-12-11T05:34:50;17.90;;;10.25;;
40449;SDS011;41787;53.570;10.032;2022-12-11T05:37:16;20.85;;;11.57;;
40449;SDS011;41787;53.570;10.032;2022-12-11T05:39:42;18.90;;;10.75;;
40449;SDS011;41787;53.570;10.032;2022-12-11T05:42:08;20.67;;;10.90;;
40449;SDS011;41787;53.570;10.032;2022-12-11T05:44:34;18.35;;;11.27;;
40449;SDS011;41787;53.570;10.032;2022-12-11T05:47:00;22.85;;;12.05;;
40449;SDS011;41787;53.570;10.032;2022-12-11T05:49:25;19.25;;;10.50;;
40449;SDS011;41787;53.570;10.032;2022-12-11T05:51:52;18.67;;;11.25;;
40449;SDS011;41787;53.570;10.032;2022-12-11T05:54:17;20.00;;;11.25;;
40449;SDS011;41787;53.570;10.032;2022-12-11T05:56:45;18.60;;;11.27;;
40449;SDS011;41787;53.570;10.032;2022-12-11T05:59:10;21.50;;;11.98;;
40449;SDS011;41787;53.570;10.032;2022-12-11T06:01:40;20.35;;;11.70;;
40449;SDS011;41787;53.570;10.032;2022-12-11T06:04:07;18.23;;;10.48;;
40449;SDS011;41787;53.570;10.032;2022-12-11T06:06:34;19.50;;;10.85;;
40449;SDS011;41787;53.570;10.032;2022-12-11T06:09:00;18.98;;;11.00;;
40449;SDS011;41787;53.570;10.032;2022-12-11T06:11:27;20.20;;;11.20;;
40449;SDS011;41787;53.570;10.032;2022-12-11T06:13:53;21.50;;;11.25;;
40449;SDS011;41787;53.570;10.032;2022-12-11T06:16:20;16.20;;;9.93;;
40449;SDS011;41787;53.570;10.032;2022-12-11T06:18:46;21.35;;;11.20;;
40449;SDS011;41787;53.570;10.032;2022-12-11T06:21:16;20.90;;;12.18;;
40449;SDS011;41787;53.570;10.032;2022-12-11T06:23:43;21.77;;;11.88;;
40449;SDS011;41787;53.570;10.032;2022-12-11T06:26:09;21.10;;;12.00;;
40449;SDS011;41787;53.570;10.032;2022-12-11T06:28:35;20.08;;;12.00;;
40449;SDS011;41787;53.570;10.032;2022-12-11T06:31:01;18.45;;;11.57;;
40449;SDS011;41787;53.570;10.032;2022-12-11T06:33:27;22.58;;;12.18;;
40449;SDS011;41787;53.570;10.032;2022-12-11T06:35:53;22.00;;;11.48;;
40449;SDS011;41787;53.570;10.032;2022-12-11T06:38:19;21.42;;;11.35;;
40449;SDS011;41787;53.570;10.032;2022-12-11T06:40:45;19.73;;;12.48;;
40449;SDS011;41787;53.570;10.032;2022-12-11T06:43:11;20.33;;;11.68;;
40449;SDS011;41787;53.570;10.032;2022-12-11T06:45:37;20.30;;;11.48;;
40449;SDS011;41787;53.570;10.032;2022-12-11T06:48:03;21.15;;;11.38;;
40449;SDS011;41787;53.570;10.032;2022-12-11T06:50:29;18.77;;;11.20;;
40449;SDS011;41787;53.570;10.032;2022-12-11T06:52:55;20.30;;;11.45;;
40449;SDS011;41787;53.570;10.032;2022-12-11T06:55:21;22.65;;;11.25;;
40449;SDS011;41787;53.570;10.032;2022-12-11T06:57:47;20.55;;;10.80;;
40449;SDS011;41787;53.570;10.032;2022-12-11T07:00:13;19.80;;;10.38;;
40449;SDS011;41787;53.570;10.032;2022-12-11T07:02:39;18.73;;;10.55;;
40449;SDS011;41787;53.570;10.032;2022-12-11T07:05:05;21.25;;;11.40;;
40449;SDS011;41787;53.570;10.032;2022-12-11T07:07:31;21.15;;;11.25;;
40449;SDS011;41787;53.570;10.032;2022-12-11T07:09:58;19.05;;;11.20;;
40449;SDS011;41787;53.570;10.032;2022-12-11T07:12:24;18.65;;;11.75;;
40449;SDS011;41787;53.570;10.032;2022-12-11T07:14:50;21.92;;;11.85;;
40449;SDS011;41787;53.570;10.032;2022-12-11T07:17:16;18.58;;;11.02;;
40449;SDS011;41787;53.570;10.032;2022-12-11T07:19:42;19.02;;;10.85;;
40449;SDS011;41787;53.570;10.032;2022-12-11T07:22:08;19.98;;;11.05;;
40449;SDS011;41787;53.570;10.032;2022-12-11T07:24:36;23.65;;;11.38;;
40449;SDS011;41787;53.570;10.032;2022-12-11T07:27:03;23.88;;;11.90;;
40449;SDS011;41787;53.570;10.032;2022-12-11T07:29:29;17.80;;;11.20;;
40449;SDS011;41787;53.570;10.032;2022-12-11T07:31:55;22.40;;;11.32;;
40449;SDS011;41787;53.570;10.032;2022-12-11T07:34:20;21.45;;;11.68;;
40449;SDS011;41787;53.570;10.032;2022-12-11T07:36:46;24.35;;;12.38;;
40449;SDS011;41787;53.570;10.032;2022-12-11T07:39:14;18.67;;;10.93;;
40449;SDS011;41787;53.570;10.032;2022-12-11T07:41:40;18.80;;;11.23;;
40449;SDS011;41787;53.570;10.032;2022-12-11T07:44:07;20.58;;;12.50;;
40449;SDS011;41787;53.570;10.032;2022-12-11T07:46:33;22.45;;;11.55;;
40449;SDS011;41787;53.570;10.032;2022-12-11T07:48:59;23.38;;;11.55;;
40449;SDS011;41787;53.570;10.032;2022-12-11T07:51:26;25.20;;;12.27;;
40449;SDS011;41787;53.570;10.032;2022-12-11T07:53:53;20.27;;;12.85;;
40449;SDS011;41787;53.570;10.032;2022-12-11T07:56:20;20.05;;;11.50;;
40449;SDS011;41787;53.570;10.032;2022-12-11T07:58:46;19.88;;;11.55;;
40449;SDS011;41787;53.570;10.032;2022-12-11T08:01:13;22.73;;;12.07;;
40449;SDS011;41787;53.570;10.032;2022-12-11T08:03:39;21.90;;;11.45;;
40449;SDS011;41787;53.570;10.032;2022-12-11T08:06:06;22.63;;;12.70;;
40449;SDS011;41787;53.570;10.032;2022-12-11T08:08:32;21.85;;;12.25;;
40449;SDS011;41787;53.570;10.032;2022-12-11T08:11:01;26.20;;;13.15;;
40449;SDS011;41787;53.570;10.032;2022-12-11T08:13:27;24.70;;;12.77;;
40449;SDS011;41787;53.570;10.032;2022-12-11T08:15:53;22.40;;;12.63;;
40449;SDS011;41787;53.570;10.032;2022-12-11T08:18:19;24.30;;;13.32;;
40449;SDS011;41787;53.570;10.032;2022-12-11T08:20:45;23.35;;;13.73;;
40449;SDS011;41787;53.570;10.032;2022-12-11T08:23:11;21.48;;;12.48;;
40449;SDS011;41787;53.570;10.032;2022-12-11T08:25:37;22.05;;;11.73;;
40449;SDS011;41787;53.570;10.032;2022-12-11T08:28:03;21.50;;;12.43;;
40449;SDS011;41787;53.570;10.032;2022-12-11T08:30:28;23.73;;;12.57;;
40449;SDS011;41787;53.570;10.032;2022-12-11T08:32:55;24.17;;;12.35;;
40449;SDS011;41787;53.570;10.032;2022-12-11T08:35:21;25.00;;;12.38;;
40449;SDS011;41787;53.570;10.032;2022-12-11T08:37:47;24.55;;;12.77;;
40449;SDS011;41787;53.570;10.032;2022-12-11T08:40:13;20.67;;;11.90;;
40449;SDS011;41787;53.570;10.032;2022-12-11T08:42:39;23.65;;;12.82;;
40449;SDS011;41787;53.570;10.032;2022-12-11T08:45:05;23.40;;;12.23;;
40449;SDS011;41787;53.570;10.032;2022-12-11T08:47:32;23.48;;;12.45;;
40449;SDS011;41787;53.570;10.032;2022-12-11T08:49:57;21.67;;;12.65;;
40449;SDS011;41787;53.570;10.032;2022-12-11T08:52:23;22.52;;;11.63;;
40449;SDS011;41787;53.570;10.032;2022-12-11T08:54:49;22.63;;;12.18;;
40449;SDS011;41787;53.570;10.032;2022-12-11T08:57:15;19.83;;;9.45;;
40449;SDS011;41787;53.570;10.032;2022-12-11T08:59:41;19.90;;;10.55;;
40449;SDS011;41787;53.570;10.032;2022-12-11T09:02:09;21.02;;;11.50;;
40449;SDS011;41787;53.570;10.032;2022-12-11T09:04:36;22.52;;;12.38;;
40449;SDS011;41787;53.570;10.032;2022-12-11T09:07:02;23.40;;;11.90;;
40449;SDS011;41787;53.570;10.032;2022-12-11T09:09:28;22.45;;;11.55;;
40449;SDS011;41787;53.570;10.032;2022-12-11T09:11:54;21.85;;;11.52;;
40449;SDS011;41787;53.570;10.032;2022-12-11T09:14:20;23.25;;;10.75;;
40449;SDS011;41787;53.570;10.032;2022-12-11T09:16:46;21.45;;;10.90;;
40449;SDS011;41787;53.570;10.032;2022-12-11T09:19:12;18.20;;;9.88;;
40449;SDS011;41787;53.570;10.032;2022-12-11T09:21:39;24.45;;;12.02;;
40449;SDS011;41787;53.570;10.032;2022-12-11T09:24:05;20.15;;;11.75;;
40449;SDS011;41787;53.570;10.032;2022-12-11T09:26:31;23.30;;;12.10;;
40449;SDS011;41787;53.570;10.032;2022-12-11T09:28:57;22.40;;;11.02;;
40449;SDS011;41787;53.570;10.032;2022-12-11T09:31:27;21.00;;;11.45;;
40449;SDS011;41787;53.570;10.032;2022-12-11T09:33:54;16.90;;;10.48;;
40449;SDS011;41787;53.570;10.032;2022-12-11T09:36:20;18.25;;;11.05;;
40449;SDS011;41787;53.570;10.032;2022-12-11T09:38:46;22.33;;;11.73;;
40449;SDS011;41787;53.570;10.032;2022-12-11T09:46:33;18.85;;;10.27;;
40449;SDS011;41787;53.570;10.032;2022-12-11T09:48:59;20.67;;;11.60;;
40449;SDS011;41787;53.570;10.032;2022-12-11T09:51:28;19.95;;;10.95;;
40449;SDS011;41787;53.570;10.032;2022-12-11T09:53:55;20.67;;;11.43;;
40449;SDS011;41787;53.570;10.032;2022-12-11T09:56:27;21.13;;;11.65;;
40449;SDS011;41787;53.570;10.032;2022-12-11T10:07:07;20.40;;;10.18;;
40449;SDS011;41787;53.570;10.032;2022-12-11T10:17:33;18.20;;;9.80;;
40449;SDS011;41787;53.570;10.032;2022-12-11T10:22:41;18.08;;;9.68;;
40449;SDS011;41787;53.570;10.032;2022-12-11T10:25:13;24.40;;;10.13;;
40449;SDS011;41787;53.570;10.032;2022-12-11T10:27:40;16.77;;;9.73;;
40449;SDS011;41787;53.570;10.032;2022-12-11T10:32:42;17.92;;;9.05;;
40449;SDS011;41787;53.570;10.032;2022-12-11T10:35:12;17.33;;;9.55;;
40449;SDS011;41787;53.570;10.032;2022-12-11T10:37:42;15.60;;;9.23;;
40449;SDS011;41787;53.570;10.032;2022-12-11T10:40:08;16.88;;;9.52;;
40449;SDS011;41787;53.570;10.032;2022-12-11T10:42:35;17.75;;;8.88;;
40449;SDS011;41787;53.570;10.032;2022-12-11T10:45:02;18.50;;;9.13;;
40449;SDS011;41787;53.570;10.032;2022-12-11T10:47:28;19.02;;;9.75;;
40449;SDS011;41787;53.570;10.032;2022-12-11T10:52:23;17.33;;;8.85;;
40449;SDS011;41787;53.570;10.032;2022-12-11T10:55:04;16.98;;;9.68;;
40449;SDS011;41787;53.570;10.032;2022-12-11T10:57:31;22.15;;;9.30;;
40449;SDS011;41787;53.570;10.032;2022-12-11T10:59:58;18.95;;;10.10;;
40449;SDS011;41787;53.570;10.032;2022-12-11T11:02:26;17.73;;;9.27;;
40449;SDS011;41787;53.570;10.032;2022-12-11T11:04:53;16.13;;;9.23;;
40449;SDS011;41787;53.570;10.032;2022-12-11T11:07:21;17.23;;;9.35;;
40449;SDS011;41787;53.570;10.032;2022-12-11T11:09:48;13.93;;;8.13;;
40449;SDS011;41787;53.570;10.032;2022-12-11T11:12:22;15.43;;;9.45;;
40449;SDS011;41787;53.570;10.032;2022-12-11T11:14:59;16.75;;;9.10;;
40449;SDS011;41787;53.570;10.032;2022-12-11T11:17:26;16.45;;;9.00;;
40449;SDS011;41787;53.570;10.032;2022-12-11T11:19:52;15.43;;;8.15;;
40449;SDS011;41787;53.570;10.032;2022-12-11T11:22:19;16.17;;;8.35;;
40449;SDS011;41787;53.570;10.032;2022-12-11T11:24:53;15.25;;;8.60;;
40449;SDS011;41787;53.570;10.032;2022-12-11T11:27:43;15.20;;;8.43;;
40449;SDS011;41787;53.570;10.032;2022-12-11T11:30:16;18.73;;;9.38;;
40449;SDS011;41787;53.570;10.032;2022-12-11T11:32:42;16.10;;;8.07;;
40449;SDS011;41787;53.570;10.032;2022-12-11T11:37:40;14.40;;;8.32;;
40449;SDS011;41787;53.570;10.032;2022-12-11T11:40:20;19.10;;;8.27;;
40449;SDS011;41787;53.570;10.032;2022-12-11T11:43:12;16.02;;;9.25;;
40449;SDS011;41787;53.570;10.032;2022-12-11T11:48:14;18.88;;;8.70;;
40449;SDS011;41787;53.570;10.032;2022-12-11T11:50:44;18.92;;;10.10;;
40449;SDS011;41787;53.570;10.032;2022-12-11T11:53:12;15.15;;;8.23;;
40449;SDS011;41787;53.570;10.032;2022-12-11T11:55:50;17.75;;;9.27;;
40449;SDS011;41787;53.570;10.032;2022-12-11T11:58:19;16.75;;;10.07;;
40449;SDS011;41787;53.570;10.032;2022-12-11T12:00:49;16.23;;;9.02;;
40449;SDS011;41787;53.570;10.032;2022-12-11T12:03:18;20.05;;;9.15;;
40449;SDS011;41787;53.570;10.032;2022-12-11T12:05:47;15.60;;;8.07;;
40449;SDS011;41787;53.570;10.032;2022-12-11T12:10:48;15.30;;;9.35;;
40449;SDS011;41787;53.570;10.032;2022-12-11T12:15:56;21.40;;;10.02;;
40449;SDS011;41787;53.570;10.032;2022-12-11T12:34:03;17.90;;;9.45;;
40449;SDS011;41787;53.570;10.032;2022-12-11T12:45:02;17.30;;;9.60;;
40449;SDS011;41787;53.570;10.032;2022-12-11T12:47:32;21.27;;;10.10;;
40449;SDS011;41787;53.570;10.032;2022-12-11T12:49:58;26.27;;;13.32;;
40449;SDS011;41787;53.570;10.032;2022-12-11T12:52:36;21.75;;;10.02;;
40449;SDS011;41787;53.570;10.032;2022-12-11T12:55:05;18.40;;;10.73;;
40449;SDS011;41787;53.570;10.032;2022-12-11T12:57:38;17.27;;;9.18;;
40449;SDS011;41787;53.570;10.032;2022-12-11T13:02:52;18.05;;;9.80;;
40449;SDS011;41787;53.570;10.032;2022-12-11T13:05:24;16.35;;;9.27;;
40449;SDS011;41787;53.570;10.032;2022-12-11T13:07:52;19.10;;;9.68;;
40449;SDS011;41787;53.570;10.032;2022-12-11T13:10:31;16.77;;;9.18;;
40449;SDS011;41787;53.570;10.032;2022-12-11T13:12:58;19.23;;;9.30;;
40449;SDS011;41787;53.570;10.032;2022-12-11T13:15:38;18.48;;;9.38;;
40449;SDS011;41787;53.570;10.032;2022-12-11T13:21:01;15.63;;;9.55;;
40449;SDS011;41787;53.570;10.032;2022-12-11T13:25:56;15.70;;;8.68;;
40449;SDS011;41787;53.570;10.032;2022-12-11T13:31:01;22.27;;;10.18;;
40449;SDS011;41787;53.570;10.032;2022-12-11T13:33:28;21.67;;;10.50;;
40449;SDS011;41787;53.570;10.032;2022-12-11T13:36:03;14.93;;;9.68;;
40449;SDS011;41787;53.570;10.032;2022-12-11T13:38:30;20.67;;;9.55;;
40449;SDS011;41787;53.570;10.032;2022-12-11T13:40:56;18.27;;;9.77;;
40449;SDS011;41787;53.570;10.032;2022-12-11T13:43:30;19.40;;;9.73;;
40449;SDS011;41787;53.570;10.032;2022-12-11T13:46:02;21.73;;;10.27;;
40449;SDS011;41787;53.570;10.032;2022-12-11T13:48:37;16.98;;;9.77;;
40449;SDS011;41787;53.570;10.032;2022-12-11T13:51:04;15.93;;;9.43;;
40449;SDS011;41787;53.570;10.032;2022-12-11T13:53:30;16.83;;;9.07;;
40449;SDS011;41787;53.570;10.032;2022-12-11T13:56:01;17.90;;;9.77;;
40449;SDS011;41787;53.570;10.032;2022-12-11T13:58:27;19.17;;;10.27;;
40449;SDS011;41787;53.570;10.032;2022-12-11T14:01:07;18.27;;;9.35;;
40449;SDS011;41787;53.570;10.032;2022-12-11T14:03:38;19.45;;;8.82;;
40449;SDS011;41787;53.570;10.032;2022-12-11T14:06:07;18.00;;;10.07;;
40449;SDS011;41787;53.570;10.032;2022-12-11T14:08:34;14.40;;;8.93;;
40449;SDS011;41787;53.570;10.032;2022-12-11T14:11:01;17.52;;;10.10;;
40449;SDS011;41787;53.570;10.032;2022-12-11T14:13:32;18.13;;;9.43;;
40449;SDS011;41787;53.570;10.032;2022-12-11T14:15:58;15.57;;;9.15;;
40449;SDS011;41787;53.570;10.032;2022-12-11T14:18:29;27.20;;;9.90;;
40449;SDS011;41787;53.570;10.032;2022-12-11T14:21:01;18.70;;;9.75;;
40449;SDS011;41787;53.570;10.032;2022-12-11T14:23:34;20.70;;;9.82;;
40449;SDS011;41787;53.570;10.032;2022-12-11T14:26:12;20.80;;;9.75;;
40449;SDS011;41787;53.570;10.032;2022-12-11T14:28:40;16.75;;;9.25;;
40449;SDS011;41787;53.570;10.032;2022-12-11T14:31:06;21.58;;;9.77;;
40449;SDS011;41787;53.570;10.032;2022-12-11T14:33:34;22.83;;;10.00;;
40449;SDS011;41787;53.570;10.032;2022-12-11T14:36:01;17.60;;;9.82;;
40449;SDS011;41787;53.570;10.032;2022-12-11T14:40:58;17.73;;;9.32;;
40449;SDS011;41787;53.570;10.032;2022-12-11T14:43:27;18.33;;;9.48;;
40449;SDS011;41787;53.570;10.032;2022-12-11T14:45:56;18.53;;;9.77;;
40449;SDS011;41787;53.570;10.032;2022-12-11T14:48:28;22.03;;;10.27;;
40449;SDS011;41787;53.570;10.032;2022-12-11T14:50:56;20.00;;;10.15;;
40449;SDS011;41787;53.570;10.032;2022-12-11T14:53:37;15.85;;;9.27;;
40449;SDS011;41787;53.570;10.032;2022-12-11T14:56:05;18.00;;;9.43;;
40449;SDS011;41787;53.570;10.032;2022-12-11T14:58:32;23.95;;;10.10;;
40449;SDS011;41787;53.570;10.032;2022-12-11T15:01:03;18.10;;;10.00;;
40449;SDS011;41787;53.570;10.032;2022-12-11T15:03:34;17.85;;;8.95;;
40449;SDS011;41787;53.570;10.032;2022-12-11T15:06:02;19.33;;;10.32;;
40449;SDS011;41787;53.570;10.032;2022-12-11T15:08:29;18.10;;;10.45;;
40449;SDS011;41787;53.570;10.032;2022-12-11T15:13:22;23.67;;;11.15;;
40449;SDS011;41787;53.570;10.032;2022-12-11T15:15:48;19.92;;;10.55;;
40449;SDS011;41787;53.570;10.032;2022-12-11T15:18:48;22.20;;;10.80;;
40449;SDS011;41787;53.570;10.032;2022-12-11T15:21:07;25.13;;;10.85;;
40449;SDS011;41787;53.570;10.032;2022-12-11T15:23:46;16.95;;;9.98;;
40449;SDS011;41787;53.570;10.032;2022-12-11T15:26:12;19.80;;;10.95;;
40449;SDS011;41787;53.570;10.032;2022-12-11T15:28:38;21.90;;;10.65;;
40449;SDS011;41787;53.570;10.032;2022-12-11T15:34:20;16.80;;;9.88;;
40449;SDS011;41787;53.570;10.032;2022-12-11T15:36:46;20.45;;;10.00;;
40449;SDS011;41787;53.570;10.032;2022-12-11T15:39:12;17.60;;;9.77;;
40449;SDS011;41787;53.570;10.032;2022-12-11T15:41:38;18.92;;;10.65;;
40449;SDS011;41787;53.570;10.032;2022-12-11T15:44:05;19.25;;;10.00;;
40449;SDS011;41787;53.570;10.032;2022-12-11T15:46:34;22.08;;;11.10;;
40449;SDS011;41787;53.570;10.032;2022-12-11T15:49:00;21.45;;;11.50;;
40449;SDS011;41787;53.570;10.032;2022-12-11T15:51:26;20.73;;;10.27;;
40449;SDS011;41787;53.570;10.032;2022-12-11T15:53:53;20.27;;;11.10;;
40449;SDS011;41787;53.570;10.032;2022-12-11T15:56:19;19.92;;;10.55;;
40449;SDS011;41787;53.570;10.032;2022-12-11T15:58:45;21.00;;;10.35;;
40449;SDS011;41787;53.570;10.032;2022-12-11T16:01:12;23.50;;;11.20;;
40449;SDS011;41787;53.570;10.032;2022-12-11T16:03:38;20.42;;;10.23;;